createdAt,value
2023-04-05T00:01:53.534Z,-3.88
2023-04-05T00:06:57.409Z,-3.95
2023-04-05T00:11:59.339Z,-4.01
2023-04-05T00:17:01.312Z,-4.04
2023-04-05T00:22:03.673Z,-4.09
2023-04-05T00:27:06.063Z,-4.12
2023-04-05T00:32:08.155Z,-4.15
2023-04-05T00:37:11.958Z,-4.18
2023-04-05T00:42:14.876Z,-4.22
2023-04-05T00:47:17.642Z,-4.28
2023-04-05T00:52:19.883Z,-4.32
2023-04-05T00:57:21.873Z,-4.34
2023-04-05T01:02:39.469Z,-4.31
2023-04-05T01:07:54.116Z,-4.20
2023-04-05T01:12:56.205Z,-4.08
2023-04-05T01:18:02.058Z,-3.98
2023-04-05T01:23:38.556Z,-3.87
2023-04-05T01:28:52.478Z,-3.78
2023-04-05T01:34:32.101Z,-3.67
2023-04-05T01:39:36.129Z,-3.56
2023-04-05T01:44:40.800Z,-3.50
2023-04-05T01:49:42.847Z,-3.40
2023-04-05T01:54:45.337Z,-3.32
2023-04-05T01:59:47.464Z,-3.30
2023-04-05T02:04:49.371Z,-3.27
2023-04-05T02:09:51.261Z,-3.21
2023-04-05T02:14:53.516Z,-3.15
2023-04-05T02:20:02.239Z,-3.08
2023-04-05T02:25:05.429Z,-3.04
2023-04-05T02:30:08.191Z,-3.08
2023-04-05T02:35:10.855Z,-3.17
2023-04-05T02:40:15.398Z,-3.31
2023-04-05T02:45:17.337Z,-3.43
2023-04-05T02:50:20.674Z,-3.53
2023-04-05T02:55:23.005Z,-3.63
2023-04-05T03:00:27.870Z,-3.73
2023-04-05T03:05:30.637Z,-3.82
2023-04-05T03:10:36.107Z,-3.87
2023-04-05T03:15:47.457Z,-3.92
2023-04-05T03:20:56.846Z,-3.95
2023-04-05T03:26:01.559Z,-4.02
2023-04-05T03:31:06.046Z,-4.07
2023-04-05T03:36:09.193Z,-4.12
2023-04-05T03:41:12.951Z,-4.15
2023-04-05T03:46:15.228Z,-4.16
2023-04-05T03:51:19.063Z,-4.14
2023-04-05T03:56:25.838Z,-4.09
2023-04-05T04:01:28.095Z,-4.03
2023-04-05T04:06:31.066Z,-3.97
2023-04-05T04:11:33.195Z,-3.92
2023-04-05T04:16:38.364Z,-3.91
2023-04-05T04:21:51.909Z,-3.93
2023-04-05T04:26:59.899Z,-4.00
2023-04-05T04:32:26.735Z,-4.03
2023-04-05T04:37:55.246Z,-4.03
2023-04-05T04:43:27.384Z,-4.00
2023-04-05T04:48:52.253Z,-3.97
2023-04-05T04:54:07.737Z,-3.94
2023-04-05T04:59:09.782Z,-3.94
2023-04-05T05:04:12.415Z,-3.93
2023-04-05T05:09:16.226Z,-3.88
2023-04-05T05:14:25.407Z,-3.76
2023-04-05T05:19:28.994Z,-3.64
2023-04-05T05:24:31.088Z,-3.54
2023-04-05T05:29:33.172Z,-3.47
2023-04-05T05:34:35.724Z,-3.40
2023-04-05T05:39:37.756Z,-3.33
2023-04-05T05:44:40.023Z,-3.24
2023-04-05T05:49:42.358Z,-3.07
2023-04-05T05:54:44.609Z,-2.85
2023-04-05T05:59:47.361Z,-2.67
2023-04-05T06:04:49.877Z,-2.55
2023-04-05T06:09:51.855Z,-2.37
2023-04-05T06:14:54.962Z,-2.18
2023-04-05T06:19:57.633Z,-1.99
2023-04-05T06:25:00.392Z,-1.80
2023-04-05T06:30:03.341Z,-1.59
2023-04-05T06:35:06.518Z,-1.41
2023-04-05T06:40:09.090Z,-1.20
2023-04-05T06:45:12.067Z,-0.94
2023-04-05T06:50:14.002Z,-0.62
2023-04-05T06:55:16.462Z,-0.30
2023-04-05T07:00:19.859Z,-0.06
2023-04-05T07:05:22.100Z,0.25
2023-04-05T07:10:24.505Z,0.70
2023-04-05T07:15:30.410Z,1.18
2023-04-05T07:20:33.218Z,1.67
2023-04-05T07:25:39.866Z,2.14
2023-04-05T07:30:52.559Z,2.46
2023-04-05T07:37:12.369Z,2.75
2023-04-05T07:42:23.407Z,2.89
2023-04-05T07:47:53.832Z,3.06
2023-04-05T07:53:09.468Z,3.31
2023-04-05T07:58:23.306Z,3.40
2023-04-05T08:03:26.619Z,3.49
2023-04-05T08:08:29.570Z,3.68
2023-04-05T08:13:50.472Z,4.04
2023-04-05T08:18:57.771Z,4.53
2023-04-05T08:24:10.306Z,4.83
2023-04-05T08:29:13.962Z,4.97
2023-04-05T08:34:16.441Z,5.01
2023-04-05T08:39:19.393Z,4.94
2023-04-05T08:44:23.171Z,5.02
2023-04-05T08:49:26.007Z,5.15
2023-04-05T08:54:28.036Z,5.31
2023-04-05T08:59:33.027Z,5.48
2023-04-05T09:04:40.332Z,5.50
2023-04-05T09:09:46.864Z,5.59
2023-04-05T09:14:50.638Z,5.69
2023-04-05T09:20:23.127Z,5.81
2023-04-05T09:25:38.887Z,5.85
2023-04-05T09:30:46.622Z,5.88
2023-04-05T09:35:51.403Z,5.68
2023-04-05T09:40:56.887Z,5.67
2023-04-05T09:46:07.772Z,5.80
2023-04-05T09:51:12.910Z,5.94
2023-04-05T09:56:15.658Z,6.09
2023-04-05T10:01:19.007Z,6.11
2023-04-05T10:06:21.683Z,6.01
2023-04-05T10:11:24.471Z,6.10
2023-04-05T10:16:29.743Z,6.45
2023-04-05T10:21:36.341Z,6.54
2023-04-05T10:26:52.983Z,6.66
2023-04-05T10:32:03.245Z,6.76
2023-04-05T10:37:07.216Z,6.76
2023-04-05T10:42:28.334Z,6.71
2023-04-05T10:47:39.133Z,6.65
2023-04-05T10:52:42.856Z,6.50
2023-04-05T10:57:46.432Z,6.35
2023-04-05T11:02:49.309Z,6.52
2023-04-05T11:07:52.695Z,6.62
2023-04-05T11:12:57.976Z,6.76
2023-04-05T11:18:20.860Z,6.72
2023-04-05T11:23:29.310Z,6.58
2023-04-05T11:28:40.606Z,6.58
2023-04-05T11:33:55.353Z,6.86
2023-04-05T11:39:18.708Z,6.85
2023-04-05T11:44:22.288Z,6.95
2023-04-05T11:49:33.033Z,7.16
2023-04-05T11:54:35.876Z,7.42
2023-04-05T11:59:39.098Z,7.44
2023-04-05T12:04:41.480Z,7.17
2023-04-05T12:10:13.978Z,6.90
2023-04-05T12:15:20.591Z,6.71
2023-04-05T12:20:25.022Z,6.51
2023-04-05T12:25:28.779Z,6.45
2023-04-05T12:30:37.130Z,6.49
2023-04-05T12:35:42.518Z,6.62
2023-04-05T12:40:47.013Z,6.77
2023-04-05T12:45:50.800Z,6.88
2023-04-05T12:50:55.163Z,6.94
2023-04-05T12:55:58.822Z,7.02
2023-04-05T13:01:04.351Z,6.80
2023-04-05T13:06:07.244Z,6.50
2023-04-05T13:11:09.262Z,6.46
2023-04-05T13:16:11.315Z,6.61
2023-04-05T13:21:14.839Z,6.83
2023-04-05T13:26:17.522Z,6.85
2023-04-05T13:31:19.995Z,6.77
2023-04-05T13:36:22.759Z,6.82
2023-04-05T13:41:26.089Z,6.83
2023-04-05T13:47:21.711Z,6.69
2023-04-05T13:53:19.679Z,6.57
2023-04-05T13:59:11.149Z,6.55
2023-04-05T14:04:54.379Z,6.49
2023-04-05T14:10:27.128Z,6.46
2023-04-05T14:15:40.000Z,6.50
2023-04-05T14:20:48.876Z,6.47
2023-04-05T14:25:50.827Z,6.39
2023-04-05T14:30:59.733Z,6.26
2023-04-05T14:36:02.886Z,6.10
2023-04-05T14:41:08.538Z,6.02
2023-04-05T14:46:31.078Z,5.95
2023-04-05T14:51:46.065Z,5.84
2023-04-05T14:56:49.121Z,5.78
2023-04-05T15:01:54.443Z,5.76
2023-04-05T15:06:57.010Z,5.94
2023-04-05T15:12:22.459Z,6.21
2023-04-05T15:17:40.528Z,6.40
2023-04-05T15:22:43.686Z,6.47
2023-04-05T15:28:07.024Z,6.26
2023-04-05T15:33:09.424Z,6.07
2023-04-05T15:38:35.428Z,5.87
2023-04-05T15:43:39.308Z,5.69
2023-04-05T15:48:44.830Z,5.57
2023-04-05T15:53:49.951Z,5.51
2023-04-05T15:59:13.422Z,5.43
2023-04-05T16:04:16.191Z,5.39
2023-04-05T16:09:19.068Z,5.33
2023-04-05T16:14:44.895Z,5.25
2023-04-05T16:19:48.294Z,5.10
2023-04-05T16:24:54.034Z,4.94
2023-04-05T16:29:58.719Z,4.79
2023-04-05T16:35:01.698Z,4.65
2023-04-05T16:40:25.085Z,4.53
2023-04-05T16:45:33.763Z,4.41
2023-04-05T16:50:39.482Z,4.25
2023-04-05T16:55:51.770Z,4.08
2023-04-05T17:01:07.858Z,3.90
2023-04-05T17:06:28.454Z,3.74
2023-04-05T17:11:31.435Z,3.58
2023-04-05T17:16:37.022Z,3.42
2023-04-05T17:21:45.519Z,3.25
2023-04-05T17:26:56.713Z,3.07
2023-04-05T17:31:59.256Z,2.89
2023-04-05T17:37:01.865Z,2.72
2023-04-05T17:42:09.967Z,2.54
2023-04-05T17:47:15.492Z,2.37
2023-04-05T17:52:30.892Z,2.22
2023-04-05T17:57:48.694Z,2.05
2023-04-05T18:03:13.618Z,1.92
2023-04-05T18:08:18.860Z,1.79
2023-04-05T18:13:21.475Z,1.69
2023-04-05T18:18:24.966Z,1.61
2023-04-05T18:23:27.183Z,1.53
2023-04-05T18:28:32.471Z,1.46
2023-04-05T18:33:34.621Z,1.42
2023-04-05T18:38:39.436Z,1.37
2023-04-05T18:43:42.058Z,1.32
2023-04-05T18:48:44.718Z,1.28
2023-04-05T18:53:46.741Z,1.26
2023-04-05T18:58:50.444Z,1.22
2023-04-05T19:03:52.477Z,1.18
2023-04-05T19:08:54.994Z,1.15
2023-04-05T19:13:59.439Z,1.13
2023-04-05T19:19:06.357Z,1.10
2023-04-05T19:24:13.970Z,1.03
2023-04-05T19:29:17.067Z,0.96
2023-04-05T19:34:19.414Z,0.87
2023-04-05T19:39:25.615Z,0.80
2023-04-05T19:44:54.888Z,0.74
2023-04-05T19:50:00.589Z,0.70
2023-04-05T19:55:27.613Z,0.71
2023-04-05T20:00:39.333Z,0.70
2023-04-05T20:05:47.065Z,0.67
2023-04-05T20:10:52.189Z,0.62
2023-04-05T20:15:55.522Z,0.58
2023-04-05T20:20:57.843Z,0.55
2023-04-05T20:26:00.369Z,0.53
2023-04-05T20:31:04.810Z,0.51
2023-04-05T20:36:13.003Z,0.43
2023-04-05T20:41:17.373Z,0.34
2023-04-05T20:46:22.788Z,0.22
2023-04-05T20:51:26.074Z,0.09
2023-04-05T20:56:28.373Z,-0.03
2023-04-05T21:01:42.819Z,-0.12
2023-04-05T21:06:45.069Z,-0.20
2023-04-05T21:11:47.920Z,-0.25
2023-04-05T21:16:50.220Z,-0.27
2023-04-05T21:21:52.860Z,-0.29
2023-04-05T21:26:56.860Z,-0.36
2023-04-05T21:32:04.401Z,-0.45
2023-04-05T21:37:10.278Z,-0.57
2023-04-05T21:42:13.728Z,-0.70
2023-04-05T21:47:35.755Z,-0.84
2023-04-05T21:52:42.798Z,-0.97
2023-04-05T21:57:45.724Z,-1.09
2023-04-05T22:02:48.389Z,-1.21
2023-04-05T22:07:53.705Z,-1.31
2023-04-05T22:12:56.606Z,-1.40
2023-04-05T22:17:59.478Z,-1.46
2023-04-05T22:23:02.209Z,-1.50
2023-04-05T22:28:05.083Z,-1.54
2023-04-05T22:33:08.531Z,-1.59
2023-04-05T22:38:11.200Z,-1.63
2023-04-05T22:43:14.502Z,-1.69
2023-04-05T22:48:16.970Z,-1.74
2023-04-05T22:53:19.768Z,-1.80
2023-04-05T22:58:32.731Z,-1.86
2023-04-05T23:03:41.272Z,-1.90
2023-04-05T23:08:48.686Z,-1.93
2023-04-05T23:14:18.138Z,-1.93
2023-04-05T23:19:22.332Z,-1.95
2023-04-05T23:24:25.074Z,-1.98
2023-04-05T23:29:30.481Z,-2.02
2023-04-05T23:34:32.919Z,-2.07
2023-04-05T23:39:35.394Z,-2.11
2023-04-05T23:44:39.372Z,-2.15
2023-04-05T23:49:43.886Z,-2.16
2023-04-05T23:54:47.453Z,-2.18
2023-04-05T23:59:52.008Z,-2.21
